createdAt,value
2022-09-04T00:01:29.350Z,3.75
2022-09-04T00:03:42.194Z,2.38
2022-09-04T00:05:51.411Z,2.55
2022-09-04T00:08:02.864Z,2.55
2022-09-04T00:10:30.817Z,5.03
2022-09-04T00:12:56.642Z,3.35
2022-09-04T00:15:08.260Z,3.85
2022-09-04T00:17:23.002Z,2.83
2022-09-04T00:19:33.547Z,1.65
2022-09-04T00:22:00.293Z,10.73
2022-09-04T00:24:11.271Z,1.35
2022-09-04T00:26:46.638Z,3.50
2022-09-04T00:28:59.171Z,3.70
2022-09-04T00:31:10.688Z,4.53
2022-09-04T00:33:26.126Z,5.97
2022-09-04T00:35:34.095Z,2.03
2022-09-04T00:37:48.905Z,2.88
2022-09-04T00:40:15.597Z,4.57
2022-09-04T00:42:39.419Z,3.83
2022-09-04T00:44:58.180Z,2.80
2022-09-04T00:47:34.845Z,2.88
2022-09-04T00:49:44.943Z,2.55
2022-09-04T00:52:11.978Z,5.60
2022-09-04T00:54:36.046Z,2.47
2022-09-04T00:56:55.382Z,2.92
2022-09-04T00:59:33.983Z,1.55
2022-09-04T01:01:38.659Z,3.17
2022-09-04T01:04:14.576Z,5.75
2022-09-04T01:06:58.803Z,3.85
2022-09-04T01:09:39.560Z,2.45
2022-09-04T01:11:56.529Z,2.83
2022-09-04T01:14:13.407Z,2.80
2022-09-04T01:16:25.416Z,1.45
2022-09-04T01:18:35.253Z,2.15
2022-09-04T01:20:52.733Z,5.32
2022-09-04T01:23:19.900Z,4.63
2022-09-04T01:26:00.403Z,4.85
2022-09-04T01:28:09.984Z,2.25
2022-09-04T01:30:17.892Z,4.13
2022-09-04T01:32:45.899Z,2.10
2022-09-04T01:35:17.723Z,1.23
2022-09-04T01:37:32.106Z,6.50
2022-09-04T01:39:38.307Z,1.17
2022-09-04T01:41:51.753Z,2.67
2022-09-04T01:43:54.737Z,3.78
2022-09-04T01:46:31.984Z,1.75
2022-09-04T01:49:05.363Z,3.13
2022-09-04T01:51:52.705Z,2.90
2022-09-04T01:54:13.038Z,7.28
2022-09-04T01:56:22.239Z,2.60
2022-09-04T01:58:35.639Z,3.08
2022-09-04T02:00:53.712Z,2.08
2022-09-04T02:05:20.239Z,2.78
2022-09-04T02:07:33.545Z,4.18
2022-09-04T02:10:08.020Z,2.17
2022-09-04T02:12:35.603Z,2.25
2022-09-04T02:14:38.314Z,3.05
2022-09-04T02:17:16.559Z,1.63
2022-09-04T02:19:33.967Z,3.13
2022-09-04T02:21:49.288Z,2.78
2022-09-04T02:24:22.751Z,4.25
2022-09-04T02:26:34.443Z,1.60
2022-09-04T02:28:58.811Z,2.15
2022-09-04T02:31:15.921Z,2.58
2022-09-04T02:33:32.324Z,1.98
2022-09-04T02:35:57.895Z,4.38
2022-09-04T02:38:31.213Z,1.95
2022-09-04T02:40:39.760Z,2.00
2022-09-04T02:42:57.562Z,3.50
2022-09-04T02:45:12.237Z,1.70
2022-09-04T02:47:35.664Z,3.20
2022-09-04T02:50:15.141Z,1.65
2022-09-04T02:52:42.281Z,2.33
2022-09-04T02:54:48.763Z,1.95
2022-09-04T02:57:09.535Z,2.58
2022-09-04T02:59:49.509Z,5.03
2022-09-04T03:02:05.200Z,2.90
2022-09-04T03:04:28.264Z,4.60
2022-09-04T03:07:12.329Z,2.40
2022-09-04T03:09:34.548Z,1.75
2022-09-04T03:11:42.409Z,2.80
2022-09-04T03:14:00.995Z,4.65
2022-09-04T03:16:16.544Z,5.13
2022-09-04T03:18:54.403Z,5.35
2022-09-04T03:21:35.523Z,1.92
2022-09-04T03:23:52.698Z,4.57
2022-09-04T03:26:15.827Z,2.78
2022-09-04T03:28:28.157Z,5.75
2022-09-04T03:30:35.678Z,5.05
2022-09-04T03:32:53.609Z,3.20
2022-09-04T03:35:14.555Z,3.55
2022-09-04T03:37:36.565Z,4.80
2022-09-04T03:40:07.979Z,4.50
2022-09-04T03:42:19.426Z,1.02
2022-09-04T03:44:39.977Z,2.78
2022-09-04T03:47:01.075Z,10.15
2022-09-04T03:49:16.594Z,7.85
2022-09-04T03:51:54.961Z,4.57
2022-09-04T03:54:17.881Z,2.70
2022-09-04T03:56:20.569Z,1.45
2022-09-04T03:58:38.372Z,5.85
2022-09-04T04:00:51.877Z,1.77
2022-09-04T04:03:19.831Z,1.95
2022-09-04T04:05:37.245Z,3.88
2022-09-04T04:08:04.231Z,5.38
2022-09-04T04:10:47.592Z,2.72
2022-09-04T04:12:59.452Z,2.58
2022-09-04T04:17:29.172Z,2.00
2022-09-04T04:19:53.653Z,2.00
2022-09-04T04:22:27.574Z,3.15
2022-09-04T04:24:54.472Z,2.15
2022-09-04T04:27:11.351Z,4.63
2022-09-04T04:29:19.738Z,2.13
2022-09-04T04:31:28.421Z,3.22
2022-09-04T04:33:48.040Z,1.85
2022-09-04T04:36:02.785Z,5.50
2022-09-04T04:38:18.748Z,2.05
2022-09-04T04:40:33.666Z,1.23
2022-09-04T04:42:56.820Z,1.60
2022-09-04T04:45:27.263Z,3.30
2022-09-04T04:47:53.372Z,2.42
2022-09-04T04:50:23.951Z,2.17
2022-09-04T04:52:51.269Z,3.00
2022-09-04T04:55:23.681Z,1.83
2022-09-04T04:57:49.017Z,5.55
2022-09-04T05:00:06.398Z,5.30
2022-09-04T05:02:21.629Z,4.20
2022-09-04T05:04:40.626Z,2.88
2022-09-04T05:06:53.145Z,7.25
2022-09-04T05:09:13.576Z,6.18
2022-09-04T05:11:37.848Z,4.57
2022-09-04T05:14:06.967Z,3.42
2022-09-04T05:16:26.090Z,4.72
2022-09-04T05:18:38.322Z,3.55
2022-09-04T05:20:58.411Z,2.75
2022-09-04T05:23:17.978Z,3.80
2022-09-04T05:25:57.623Z,6.60
2022-09-04T05:28:05.790Z,7.13
2022-09-04T05:30:23.859Z,6.68
2022-09-04T05:32:40.164Z,5.75
2022-09-04T05:35:02.285Z,8.15
2022-09-04T05:37:57.114Z,6.03
2022-09-04T05:40:04.330Z,9.40
2022-09-04T05:42:39.185Z,5.90
2022-09-04T05:44:54.858Z,4.30
2022-09-04T05:47:22.026Z,4.10
2022-09-04T05:50:03.413Z,3.38
2022-09-04T05:52:30.287Z,4.18
2022-09-04T05:54:57.917Z,5.63
2022-09-04T05:57:23.151Z,5.18
2022-09-04T05:59:45.506Z,8.68
2022-09-04T06:02:10.052Z,5.68
2022-09-04T06:04:36.210Z,2.53
2022-09-04T06:06:57.525Z,2.15
2022-09-04T06:09:03.059Z,5.05
2022-09-04T06:11:27.376Z,3.88
2022-09-04T06:14:06.855Z,3.83
2022-09-04T06:16:14.200Z,6.45
2022-09-04T06:18:37.368Z,8.73
2022-09-04T06:21:11.601Z,3.08
2022-09-04T06:23:25.812Z,9.90
2022-09-04T06:25:57.063Z,6.05
2022-09-04T06:28:07.246Z,5.15
2022-09-04T06:30:12.824Z,5.10
2022-09-04T06:32:40.508Z,5.97
2022-09-04T06:34:59.146Z,10.25
2022-09-04T06:37:44.658Z,4.47
2022-09-04T06:40:08.587Z,7.35
2022-09-04T06:42:35.640Z,8.00
2022-09-04T06:44:46.259Z,4.00
2022-09-04T06:46:51.430Z,3.45
2022-09-04T06:49:13.518Z,4.65
2022-09-04T06:51:22.138Z,5.25
2022-09-04T06:53:50.679Z,5.22
2022-09-04T06:56:11.362Z,2.67
2022-09-04T06:58:22.956Z,5.28
2022-09-04T07:00:29.804Z,6.93
2022-09-04T07:03:17.459Z,3.42
2022-09-04T07:05:32.523Z,4.32
2022-09-04T07:07:56.585Z,2.97
2022-09-04T07:10:10.717Z,1.92
2022-09-04T07:12:33.765Z,7.55
2022-09-04T07:14:55.046Z,1.52
2022-09-04T07:17:19.535Z,2.55
2022-09-04T07:19:58.210Z,4.05
2022-09-04T07:22:19.706Z,4.80
2022-09-04T07:24:29.861Z,2.28
2022-09-04T07:27:11.155Z,3.70
2022-09-04T07:29:35.483Z,6.78
2022-09-04T07:31:56.931Z,2.35
2022-09-04T07:34:14.825Z,6.90
2022-09-04T07:36:39.018Z,2.72
2022-09-04T07:39:05.565Z,3.60
2022-09-04T07:41:17.563Z,4.00
2022-09-04T07:43:32.580Z,5.25
2022-09-04T07:45:39.703Z,5.28
2022-09-04T07:47:55.425Z,1.67
2022-09-04T07:50:12.962Z,2.70
2022-09-04T07:52:50.616Z,4.00
2022-09-04T07:55:12.394Z,2.03
2022-09-04T08:00:10.527Z,2.17
2022-09-04T08:02:32.011Z,3.30
2022-09-04T08:04:53.253Z,5.00
2022-09-04T08:07:01.579Z,3.28
2022-09-04T08:09:29.006Z,2.42
2022-09-04T08:11:55.686Z,8.73
2022-09-04T08:14:02.140Z,2.53
2022-09-04T08:16:23.625Z,5.78
2022-09-04T08:21:27.239Z,5.70
2022-09-04T08:24:01.500Z,5.88
2022-09-04T08:26:29.967Z,3.85
2022-09-04T08:29:00.608Z,4.32
2022-09-04T08:31:21.333Z,5.65
2022-09-04T08:34:02.723Z,2.95
2022-09-04T08:36:21.059Z,3.00
2022-09-04T08:38:47.306Z,3.58
2022-09-04T08:41:07.063Z,3.35
2022-09-04T08:43:21.452Z,6.97
2022-09-04T08:45:42.009Z,2.35
2022-09-04T08:48:19.461Z,4.00
2022-09-04T08:50:51.907Z,2.97
2022-09-04T08:53:15.875Z,3.25
2022-09-04T08:55:39.019Z,3.58
2022-09-04T08:57:50.866Z,3.50
2022-09-04T09:00:15.676Z,3.28
2022-09-04T09:02:36.586Z,4.00
2022-09-04T09:05:00.245Z,3.80
2022-09-04T09:07:34.357Z,5.60
2022-09-04T09:09:51.783Z,2.33
2022-09-04T09:12:09.214Z,2.63
2022-09-04T09:15:00.290Z,4.28
2022-09-04T09:17:34.619Z,4.23
2022-09-04T09:20:07.024Z,3.90
2022-09-04T09:22:38.969Z,2.80
2022-09-04T09:25:00.267Z,1.52
2022-09-04T09:27:12.018Z,3.33
2022-09-04T09:29:20.520Z,3.38
2022-09-04T09:31:52.528Z,2.35
2022-09-04T09:34:11.613Z,2.42
2022-09-04T09:36:44.614Z,2.05
2022-09-04T09:39:17.170Z,1.95
2022-09-04T09:41:33.844Z,4.72
2022-09-04T09:43:57.217Z,2.47
2022-09-04T09:46:08.268Z,3.05
2022-09-04T09:48:48.267Z,2.72
2022-09-04T09:51:18.367Z,2.65
2022-09-04T09:53:51.755Z,1.77
2022-09-04T09:56:31.591Z,1.13
2022-09-04T09:59:09.873Z,1.40
2022-09-04T10:01:24.906Z,2.30
2022-09-04T10:03:39.824Z,2.72
2022-09-04T10:06:09.774Z,2.53
2022-09-04T10:08:35.942Z,1.30
2022-09-04T10:11:23.956Z,6.43
2022-09-04T10:13:54.285Z,2.00
2022-09-04T10:15:56.837Z,4.40
2022-09-04T10:18:32.811Z,6.05
2022-09-04T10:20:41.143Z,2.47
2022-09-04T10:23:00.763Z,2.17
2022-09-04T10:25:33.084Z,3.58
2022-09-04T10:27:55.517Z,2.63
2022-09-04T10:30:16.892Z,3.67
2022-09-04T10:32:33.230Z,3.65
2022-09-04T10:35:09.754Z,2.47
2022-09-04T10:37:31.099Z,3.75
2022-09-04T10:39:54.743Z,4.05
2022-09-04T10:42:10.576Z,2.97
2022-09-04T10:44:26.925Z,5.22
2022-09-04T10:46:58.788Z,1.60
2022-09-04T10:49:11.603Z,1.90
2022-09-04T10:51:23.093Z,1.75
2022-09-04T10:56:19.775Z,2.80
2022-09-04T10:58:54.583Z,1.00
2022-09-04T11:01:21.928Z,2.80
2022-09-04T11:03:46.222Z,3.08
2022-09-04T11:06:12.267Z,1.30
2022-09-04T11:08:40.087Z,4.45
2022-09-04T11:11:31.706Z,2.95
2022-09-04T11:13:56.105Z,0.80
2022-09-04T11:16:21.111Z,2.85
2022-09-04T11:18:34.612Z,1.80
2022-09-04T11:21:08.239Z,2.17
2022-09-04T11:23:48.849Z,0.47
2022-09-04T11:26:06.051Z,2.25
2022-09-04T11:28:40.436Z,1.35
2022-09-04T11:31:10.821Z,1.20
2022-09-04T11:33:48.693Z,3.13
2022-09-04T11:36:07.470Z,2.97
2022-09-04T11:38:28.663Z,1.65
2022-09-04T11:41:03.390Z,1.13
2022-09-04T11:43:39.846Z,1.20
2022-09-04T11:46:11.552Z,2.47
2022-09-04T11:50:52.961Z,1.60
2022-09-04T11:53:08.544Z,1.35
2022-09-04T11:55:40.202Z,5.88
2022-09-04T11:57:48.500Z,1.10
2022-09-04T12:00:09.231Z,2.78
2022-09-04T12:02:30.234Z,2.08
2022-09-04T12:05:03.414Z,3.22
2022-09-04T12:07:43.055Z,4.35
2022-09-04T12:10:21.938Z,3.63
2022-09-04T12:12:50.958Z,6.78
2022-09-04T12:15:23.327Z,3.75
2022-09-04T12:18:08.652Z,4.00
2022-09-04T12:20:42.790Z,3.45
2022-09-04T12:23:17.931Z,2.75
2022-09-04T12:25:47.585Z,4.63
2022-09-04T12:28:27.179Z,3.50
2022-09-04T12:31:11.155Z,7.30
2022-09-04T12:33:48.969Z,3.70
2022-09-04T12:36:23.807Z,5.18
2022-09-04T12:38:47.493Z,2.97
2022-09-04T12:41:12.270Z,2.00
2022-09-04T12:43:20.713Z,4.18
2022-09-04T12:46:04.186Z,3.55
2022-09-04T12:48:33.518Z,7.57
2022-09-04T12:50:57.804Z,4.57
2022-09-04T12:53:01.159Z,2.70
2022-09-04T12:55:23.173Z,2.65
2022-09-04T12:57:48.401Z,3.08
2022-09-04T13:00:12.289Z,3.85
2022-09-04T13:02:17.776Z,2.70
2022-09-04T13:04:22.756Z,5.28
2022-09-04T13:06:41.973Z,4.63
2022-09-04T13:09:01.098Z,3.22
2022-09-04T13:11:23.916Z,2.78
2022-09-04T13:13:44.864Z,3.85
2022-09-04T13:16:07.889Z,4.15
2022-09-04T13:18:36.434Z,4.70
2022-09-04T13:21:02.991Z,8.27
2022-09-04T13:23:37.125Z,6.03
2022-09-04T13:26:24.842Z,4.53
2022-09-04T13:28:38.051Z,4.05
2022-09-04T13:31:07.361Z,3.35
2022-09-04T13:33:13.859Z,7.93
2022-09-04T13:35:39.384Z,3.60
2022-09-04T13:37:52.045Z,6.18
2022-09-04T13:40:14.699Z,5.47
2022-09-04T13:42:37.449Z,4.25
2022-09-04T13:44:58.347Z,3.22
2022-09-04T13:47:11.765Z,3.45
2022-09-04T13:49:21.127Z,4.10
2022-09-04T13:51:30.031Z,3.33
2022-09-04T13:53:55.583Z,3.20
2022-09-04T13:56:04.060Z,7.00
2022-09-04T13:58:20.321Z,4.10
2022-09-04T14:00:24.756Z,8.20
2022-09-04T14:02:30.459Z,5.20
2022-09-04T14:04:44.135Z,3.75
2022-09-04T14:06:48.312Z,3.95
2022-09-04T14:09:04.777Z,4.38
2022-09-04T14:11:40.657Z,5.97
2022-09-04T14:14:23.642Z,6.70
2022-09-04T14:16:26.770Z,4.00
2022-09-04T14:18:35.441Z,6.07
2022-09-04T14:21:01.576Z,5.13
2022-09-04T14:23:22.888Z,3.78
2022-09-04T14:25:35.361Z,4.60
2022-09-04T14:27:39.153Z,3.92
2022-09-04T14:29:57.871Z,6.35
2022-09-04T14:32:32.799Z,5.88
2022-09-04T14:34:56.376Z,4.75
2022-09-04T14:37:27.897Z,4.03
2022-09-04T14:41:36.173Z,3.42
2022-09-04T14:43:42.041Z,8.05
2022-09-04T14:46:12.376Z,5.47
2022-09-04T14:48:17.895Z,3.90
2022-09-04T14:50:24.786Z,6.40
2022-09-04T14:52:36.616Z,4.57
2022-09-04T14:54:46.732Z,6.53
2022-09-04T14:56:53.384Z,4.82
2022-09-04T14:59:13.107Z,4.32
2022-09-04T15:01:21.749Z,5.30
2022-09-04T15:03:30.815Z,4.35
2022-09-04T15:05:57.097Z,5.13
2022-09-04T15:08:11.038Z,4.88
2022-09-04T15:10:28.741Z,6.47
2022-09-04T15:12:38.962Z,4.35
2022-09-04T15:14:45.617Z,4.15
2022-09-04T15:16:54.594Z,5.13
2022-09-04T15:19:41.103Z,9.25
2022-09-04T15:22:05.306Z,6.95
2022-09-04T15:24:16.923Z,7.45
2022-09-04T15:26:25.920Z,6.28
2022-09-04T15:28:38.617Z,5.88
2022-09-04T15:30:46.633Z,5.93
2022-09-04T15:33:02.848Z,6.18
2022-09-04T15:35:09.004Z,4.82
2022-09-04T15:37:27.180Z,5.32
2022-09-04T15:39:40.298Z,5.28
2022-09-04T15:41:47.301Z,6.40
2022-09-04T15:44:00.888Z,4.40
2022-09-04T15:46:11.213Z,3.38
2022-09-04T15:48:38.750Z,8.98
2022-09-04T15:50:58.805Z,4.13
2022-09-04T15:53:25.106Z,5.00
2022-09-04T15:55:40.605Z,7.75
2022-09-04T15:58:10.426Z,6.78
2022-09-04T16:00:22.549Z,10.35
2022-09-04T16:03:03.435Z,7.20
2022-09-04T16:05:28.305Z,5.82
2022-09-04T16:07:34.378Z,5.70
2022-09-04T16:09:45.303Z,8.27
2022-09-04T16:12:12.388Z,5.00
2022-09-04T16:14:23.377Z,5.10
2022-09-04T16:16:26.088Z,4.35
2022-09-04T16:18:38.117Z,8.57
2022-09-04T16:21:04.807Z,6.75
2022-09-04T16:23:10.517Z,5.32
2022-09-04T16:25:23.490Z,6.88
2022-09-04T16:27:28.618Z,5.18
2022-09-04T16:29:44.787Z,7.22
2022-09-04T16:31:57.379Z,3.78
2022-09-04T16:34:26.936Z,5.85
2022-09-04T16:36:40.395Z,8.50
2022-09-04T16:38:57.535Z,6.22
2022-09-04T16:41:25.903Z,3.70
2022-09-04T16:43:34.365Z,4.25
2022-09-04T16:45:46.978Z,5.93
2022-09-04T16:48:26.843Z,4.57
2022-09-04T16:50:54.813Z,3.92
2022-09-04T16:53:24.203Z,7.28
2022-09-04T16:55:34.670Z,5.47
2022-09-04T16:57:41.944Z,3.95
2022-09-04T16:59:50.409Z,4.20
2022-09-04T17:02:03.838Z,5.85
2022-09-04T17:04:28.788Z,6.80
2022-09-04T17:06:44.420Z,3.92
2022-09-04T17:08:54.131Z,3.65
2022-09-04T17:11:12.120Z,3.22
2022-09-04T17:13:52.495Z,6.85
2022-09-04T17:16:13.584Z,4.03
2022-09-04T17:18:22.745Z,2.88
2022-09-04T17:24:56.361Z,5.05
2022-09-04T17:28:54.690Z,4.07
2022-09-04T17:29:10.499Z,6.20
2022-09-04T17:29:18.569Z,5.05
2022-09-04T17:31:38.676Z,4.13
2022-09-04T17:40:38.565Z,4.88
2022-09-04T17:40:47.895Z,7.82
2022-09-04T17:40:57.150Z,3.13
2022-09-04T17:42:24.945Z,5.72
2022-09-04T17:44:46.982Z,7.00
2022-09-04T17:46:49.984Z,9.77
2022-09-04T17:48:54.122Z,5.05
2022-09-04T17:50:59.696Z,5.47
2022-09-04T17:53:05.674Z,5.70
2022-09-04T17:55:14.928Z,4.97
2022-09-04T17:57:46.764Z,4.72
2022-09-04T18:00:07.017Z,5.20
2022-09-04T18:02:22.979Z,10.90
2022-09-04T18:04:57.585Z,7.18
2022-09-04T18:07:57.751Z,9.35
2022-09-04T18:09:55.658Z,5.93
2022-09-04T18:12:23.193Z,7.88
2022-09-04T18:14:39.043Z,7.57
2022-09-04T18:17:11.779Z,6.32
2022-09-04T18:19:36.969Z,7.70
2022-09-04T18:22:06.465Z,8.00
2022-09-04T18:24:17.962Z,10.15
2022-09-04T18:26:39.978Z,5.72
2022-09-04T18:29:56.886Z,6.47
2022-09-04T18:37:08.007Z,7.30
2022-09-04T18:37:18.214Z,9.80
2022-09-04T18:37:27.098Z,7.07
2022-09-04T18:39:39.937Z,12.00
2022-09-04T18:48:54.920Z,9.13
2022-09-04T18:50:30.329Z,6.80
2022-09-04T18:50:45.239Z,7.97
2022-09-04T18:50:51.000Z,13.32
2022-09-04T18:52:14.764Z,8.07
2022-09-04T18:54:26.636Z,10.52
2022-09-04T18:58:45.067Z,9.32
2022-09-04T19:00:59.560Z,7.50
2022-09-04T19:03:11.577Z,7.20
2022-09-04T19:05:18.177Z,11.30
2022-09-04T19:07:32.942Z,10.35
2022-09-04T19:09:55.592Z,7.30
2022-09-04T19:12:09.821Z,10.23
2022-09-04T19:14:24.712Z,9.77
2022-09-04T19:16:52.236Z,8.55
2022-09-04T19:19:00.625Z,14.32
2022-09-04T19:21:09.345Z,9.87
2022-09-04T19:23:32.443Z,9.43
2022-09-04T19:25:40.543Z,11.80
2022-09-04T19:27:54.929Z,11.18
2022-09-04T19:30:18.312Z,9.70
2022-09-04T19:32:37.077Z,12.52
2022-09-04T19:34:55.304Z,9.93
2022-09-04T19:37:39.871Z,8.43
2022-09-04T19:45:56.755Z,8.70
2022-09-04T19:46:07.372Z,7.18
2022-09-04T19:46:08.760Z,7.95
2022-09-04T19:47:32.532Z,9.18
2022-09-04T19:53:02.109Z,11.18
2022-09-04T19:53:34.663Z,9.15
2022-09-04T19:55:24.505Z,14.27
2022-09-04T19:57:33.963Z,11.45
2022-09-04T19:59:45.994Z,12.85
2022-09-04T20:01:58.157Z,8.43
2022-09-04T20:04:23.672Z,8.70
2022-09-04T20:06:36.832Z,14.95
2022-09-04T20:09:33.524Z,13.50
2022-09-04T20:11:56.213Z,14.98
2022-09-04T20:14:13.480Z,11.73
2022-09-04T20:16:21.379Z,11.95
2022-09-04T20:18:39.262Z,12.13
2022-09-04T20:20:47.495Z,11.10
2022-09-04T20:23:29.254Z,16.52
2022-09-04T20:25:52.112Z,16.38
2022-09-04T20:28:08.885Z,10.15
2022-09-04T20:30:19.577Z,12.80
2022-09-04T20:32:27.284Z,16.08
2022-09-04T20:34:40.361Z,13.10
2022-09-04T20:36:49.472Z,10.52
2022-09-04T20:39:03.157Z,13.02
2022-09-04T20:41:12.086Z,12.52
2022-09-04T20:43:51.045Z,13.98
2022-09-04T20:47:51.846Z,12.57
2022-09-04T20:52:59.316Z,11.63
2022-09-04T20:55:54.973Z,11.95
2022-09-04T21:03:08.299Z,13.02
2022-09-04T21:03:23.855Z,12.25
2022-09-04T21:03:33.824Z,14.43
2022-09-04T21:05:49.107Z,12.00
2022-09-04T21:08:30.139Z,15.40
2022-09-04T21:10:47.114Z,13.77
2022-09-04T21:13:15.069Z,13.25
2022-09-04T21:15:52.198Z,13.52
2022-09-04T21:18:21.725Z,10.85
2022-09-04T21:20:59.725Z,12.90
2022-09-04T21:23:35.531Z,13.57
2022-09-04T21:25:56.426Z,14.05
2022-09-04T21:28:22.002Z,14.13
2022-09-04T21:30:58.898Z,17.73
2022-09-04T21:33:27.150Z,17.92
2022-09-04T21:35:50.955Z,17.80
2022-09-04T21:38:04.372Z,13.40
2022-09-04T21:40:49.513Z,15.73
2022-09-04T21:42:59.102Z,23.83
2022-09-04T21:45:07.544Z,14.25
2022-09-04T21:47:55.589Z,19.30
2022-09-04T21:50:35.022Z,13.77
2022-09-04T21:52:56.111Z,12.48
2022-09-04T21:58:11.476Z,19.05
2022-09-04T22:02:27.020Z,10.98
2022-09-04T22:02:49.345Z,14.95
2022-09-04T22:02:57.775Z,14.00
2022-09-04T22:05:27.573Z,13.18
2022-09-04T22:12:01.566Z,18.73
2022-09-04T22:13:40.668Z,14.27
2022-09-04T22:17:57.065Z,19.35
2022-09-04T22:22:34.651Z,16.17
2022-09-04T22:24:55.106Z,21.67
2022-09-04T22:27:31.700Z,27.58
2022-09-04T22:30:08.623Z,23.15
2022-09-04T22:32:26.095Z,17.67
2022-09-04T22:34:47.051Z,18.95
2022-09-04T22:37:16.894Z,20.48
2022-09-04T22:39:57.908Z,25.00
2022-09-04T22:42:20.403Z,21.33
2022-09-04T22:44:55.569Z,19.70
2022-09-04T22:47:52.959Z,21.25
2022-09-04T22:50:04.438Z,21.63
2022-09-04T22:52:16.152Z,16.83
2022-09-04T22:54:21.486Z,20.30
2022-09-04T22:56:39.137Z,18.90
2022-09-04T22:59:07.542Z,17.13
2022-09-04T23:01:45.377Z,21.55
2022-09-04T23:04:06.127Z,17.08
2022-09-04T23:08:46.920Z,16.63
2022-09-04T23:13:48.524Z,13.90
2022-09-04T23:13:54.846Z,18.08
2022-09-04T23:14:38.023Z,15.40
2022-09-04T23:16:49.671Z,14.23
2022-09-04T23:26:32.743Z,23.42
2022-09-04T23:26:35.719Z,18.83
2022-09-04T23:26:53.818Z,13.98
2022-09-04T23:27:00.143Z,14.30
2022-09-04T23:29:26.741Z,18.80
2022-09-04T23:32:07.233Z,18.60
2022-09-04T23:34:36.144Z,13.48
2022-09-04T23:36:47.767Z,16.08
2022-09-04T23:39:07.980Z,27.20
2022-09-04T23:41:30.822Z,15.73
2022-09-04T23:43:33.426Z,17.38
2022-09-04T23:45:55.247Z,13.45
2022-09-04T23:48:11.119Z,9.93
2022-09-04T23:50:29.100Z,12.63
2022-09-04T23:52:49.041Z,7.30
2022-09-04T23:54:57.999Z,13.82
2022-09-04T23:57:15.424Z,9.15
2022-09-04T23:59:37.961Z,10.38
